Thunderstorms From: 15-12-2017 06:00 Until: 16-12-2017 06:00 warning for: Thunderstorms Level: Yellow info button

Although rather usual in this region, locally or potentially dangerous phenomena are expected. (such as local winds, summer thunderstorms, rising streams or high waves) Be aware and pay attention to the latest weather updates, especially if you carry out activities exposed to weather or close to a stream or shoreline. 


Meteo18 Weather Cam more information Meteo18 Weather Cam


warning for Thunderstorms more information blitzortung!


Rain radar more information rain snow radar


Visit our other weather sites:

Template documentation
and downloads

And another site



Weather Underground History page Text

Daily Summary for January 24, 2017 Units:  Metric    English   Both
« Previous Day
Next Day »
Daily Weekly Monthly Yearly Custom
  High: Low: Average:
Temperature: -0.8 °C -4.4 °C -2.7 °C
Dew Point: -1.2 °C -5.2 °C -3.4 °C
Humidity: 97 % 90 % 95 %
Wind Speed: 25.7 km/h 0.0 km/h 4.9 km/h
Wind Gust: 27.4 km/h - -
Wind:- - SSE
Pressure: 1029.0 hPa 1026.6 hPa -
Precipitation: 0.0 mm    
Historical Graphs
 
 
Tabular Data for January 24, 2017
Time Temperature Dew Point Pressure Wind Wind Speed Wind Gust Humidity Rainfall Rate (Hourly)
00:02 -2.9 °C -4.2 °C 1026.6 hPa NNW 1.6 km/h 16.1 km/h 91 % 0.0 mm
00:07 -3.0 °C -4.3 °C 1026.6 hPa NE 4.8 km/h 12.9 km/h 91 % 0.0 mm
00:12 -3.0 °C -4.3 °C 1026.6 hPa NNE 4.8 km/h 12.9 km/h 91 % 0.0 mm
00:17 -3.1 °C -4.4 °C 1026.6 hPa NNW 6.4 km/h 9.7 km/h 91 % 0.0 mm
00:22 -3.1 °C -4.4 °C 1026.6 hPa NNW 3.2 km/h 12.9 km/h 91 % 0.0 mm
00:32 -3.2 °C -4.5 °C 1026.6 hPa NE 4.8 km/h 12.9 km/h 91 % 0.0 mm
00:37 -3.2 °C -4.5 °C 1026.6 hPa NE 3.2 km/h 12.9 km/h 91 % 0.0 mm
00:42 -3.3 °C -4.4 °C 1026.6 hPa NNW 8.0 km/h 11.3 km/h 92 % 0.0 mm
00:47 -3.2 °C -4.3 °C 1026.6 hPa North 6.4 km/h 11.3 km/h 92 % 0.0 mm
00:57 -3.2 °C -4.5 °C 1027.0 hPa North 6.4 km/h 14.5 km/h 91 % 0.0 mm
01:02 -3.3 °C -4.6 °C 1027.0 hPa NNW 3.2 km/h 14.5 km/h 91 % 0.0 mm
01:12 -3.4 °C -4.5 °C 1027.0 hPa North 1.6 km/h 9.7 km/h 92 % 0.0 mm
01:17 -3.4 °C -4.5 °C 1027.0 hPa NNE 1.6 km/h 16.1 km/h 92 % 0.0 mm
01:22 -3.6 °C -4.7 °C 1027.0 hPa NNW 9.7 km/h 16.1 km/h 92 % 0.0 mm
01:32 -3.9 °C -5.0 °C 1026.6 hPa Calm   16.1 km/h 92 % 0.0 mm
01:37 -4.0 °C -5.0 °C 1026.6 hPa NE 4.8 km/h 11.3 km/h 93 % 0.0 mm
01:42 -4.1 °C -5.1 °C 1026.6 hPa North 4.8 km/h 11.3 km/h 93 % 0.0 mm
01:47 -4.2 °C -5.2 °C 1026.6 hPa NNW 6.4 km/h 11.3 km/h 93 % 0.0 mm
01:52 -4.2 °C -5.2 °C 1026.6 hPa North 6.4 km/h 9.7 km/h 93 % 0.0 mm
01:57 -4.2 °C -5.0 °C 1026.6 hPa NE 4.8 km/h 11.3 km/h 94 % 0.0 mm
02:07 -4.3 °C -5.1 °C 1026.6 hPa NNW 1.6 km/h 11.3 km/h 94 % 0.0 mm
02:12 -4.3 °C -5.1 °C 1027.0 hPa NNW 3.2 km/h 11.3 km/h 94 % 0.0 mm
02:17 -4.4 °C -5.2 °C 1026.6 hPa NNW 3.2 km/h 11.3 km/h 94 % 0.0 mm
02:22 -4.4 °C -5.2 °C 1027.0 hPa ENE 4.8 km/h 11.3 km/h 94 % 0.0 mm
02:27 -4.4 °C -5.2 °C 1027.0 hPa NNE 3.2 km/h 11.3 km/h 94 % 0.0 mm
02:32 -4.4 °C -5.2 °C 1027.0 hPa NNE 8.0 km/h 11.3 km/h 94 % 0.0 mm
02:42 -4.3 °C -5.0 °C 1027.0 hPa North 3.2 km/h 17.7 km/h 95 % 0.0 mm
02:47 -4.2 °C -4.9 °C 1027.0 hPa North 3.2 km/h 17.7 km/h 95 % 0.0 mm
02:52 -4.2 °C -4.9 °C 1027.0 hPa North 6.4 km/h 17.7 km/h 95 % 0.0 mm
02:57 -4.1 °C -4.8 °C 1027.0 hPa NNW 1.6 km/h 12.9 km/h 95 % 0.0 mm
03:02 -4.1 °C -4.8 °C 1027.0 hPa NW 4.8 km/h 12.9 km/h 95 % 0.0 mm
03:07 -4.1 °C -4.8 °C 1027.0 hPa NNE 6.4 km/h 14.5 km/h 95 % 0.0 mm
03:12 -4.0 °C -4.7 °C 1027.0 hPa North 3.2 km/h 14.5 km/h 95 % 0.0 mm
03:17 -4.0 °C -4.7 °C 1027.0 hPa WSW 8.0 km/h 14.5 km/h 95 % 0.0 mm
03:22 -3.9 °C -4.6 °C 1027.0 hPa NNE 4.8 km/h 16.1 km/h 95 % 0.0 mm
03:32 -3.9 °C -4.6 °C 1027.0 hPa NNE 9.7 km/h 19.3 km/h 95 % 0.0 mm
03:37 -3.9 °C -4.6 °C 1027.0 hPa North 9.7 km/h 19.3 km/h 95 % 0.0 mm
03:42 -3.9 °C -4.6 °C 1027.0 hPa NNE 3.2 km/h 19.3 km/h 95 % 0.0 mm
03:47 -3.9 °C -4.6 °C 1027.0 hPa North 8.0 km/h 19.3 km/h 95 % 0.0 mm
03:52 -3.9 °C -4.6 °C 1027.0 hPa North 1.6 km/h 19.3 km/h 95 % 0.0 mm
03:57 -3.9 °C -4.6 °C 1027.0 hPa North 9.7 km/h 19.3 km/h 95 % 0.0 mm
04:02 -3.9 °C -4.6 °C 1027.0 hPa NNW 8.0 km/h 19.3 km/h 95 % 0.0 mm
04:12 -3.9 °C -4.6 °C 1027.0 hPa NNW 9.7 km/h 19.3 km/h 95 % 0.0 mm
04:17 -3.9 °C -4.6 °C 1027.0 hPa North 3.2 km/h 12.9 km/h 95 % 0.0 mm
04:22 -3.9 °C -4.6 °C 1027.0 hPa NNW 3.2 km/h 12.9 km/h 95 % 0.0 mm
04:27 -3.9 °C -4.6 °C 1027.0 hPa NNW 6.4 km/h 11.3 km/h 95 % 0.0 mm
04:32 -3.9 °C -4.6 °C 1027.0 hPa NE 8.0 km/h 11.3 km/h 95 % 0.0 mm
04:37 -4.0 °C -4.7 °C 1027.0 hPa North 4.8 km/h 12.9 km/h 95 % 0.0 mm
04:42 -4.1 °C -4.8 °C 1027.0 hPa NE 6.4 km/h 12.9 km/h 95 % 0.0 mm
04:47 -4.1 °C -4.8 °C 1027.3 hPa North 1.6 km/h 12.9 km/h 95 % 0.0 mm
04:52 -4.0 °C -4.7 °C 1027.3 hPa NNW 4.8 km/h 11.3 km/h 95 % 0.0 mm
05:02 -4.1 °C -4.8 °C 1027.3 hPa NE 14.5 km/h 14.5 km/h 95 % 0.0 mm
05:07 -4.2 °C -4.9 °C 1027.3 hPa NW 4.8 km/h 14.5 km/h 95 % 0.0 mm
05:12 -4.1 °C -4.8 °C 1027.3 hPa NE 9.7 km/h 14.5 km/h 95 % 0.0 mm
05:17 -4.1 °C -4.8 °C 1027.3 hPa North 4.8 km/h 14.5 km/h 95 % 0.0 mm
05:22 -4.1 °C -4.8 °C 1027.3 hPa NW 3.2 km/h 14.5 km/h 95 % 0.0 mm
05:32 -4.1 °C -4.8 °C 1027.3 hPa NE 3.2 km/h 12.9 km/h 95 % 0.0 mm
05:37 -4.2 °C -4.9 °C 1027.3 hPa East 8.0 km/h 14.5 km/h 95 % 0.0 mm
05:42 -4.1 °C -4.8 °C 1027.3 hPa North 8.0 km/h 14.5 km/h 95 % 0.0 mm
05:47 -4.2 °C -4.9 °C 1027.3 hPa NNE 3.2 km/h 14.5 km/h 95 % 0.0 mm
05:52 -4.1 °C -4.8 °C 1027.3 hPa NE 3.2 km/h 14.5 km/h 95 % 0.0 mm
05:57 -4.2 °C -4.9 °C 1027.3 hPa North 11.3 km/h 11.3 km/h 95 % 0.0 mm
06:02 -4.2 °C -4.9 °C 1027.3 hPa North 8.0 km/h 11.3 km/h 95 % 0.0 mm
06:07 -4.2 °C -4.9 °C 1027.7 hPa North 6.4 km/h 12.9 km/h 95 % 0.0 mm
06:12 -4.2 °C -4.9 °C 1027.7 hPa NE 11.3 km/h 12.9 km/h 95 % 0.0 mm
06:17 -4.2 °C -4.9 °C 1027.7 hPa North 9.7 km/h 14.5 km/h 95 % 0.0 mm
06:22 -4.2 °C -4.9 °C 1027.7 hPa North 12.9 km/h 14.5 km/h 95 % 0.0 mm
06:32 -4.3 °C -5.0 °C 1027.7 hPa NNE 3.2 km/h 17.7 km/h 95 % 0.0 mm
06:37 -4.3 °C -5.0 °C 1027.7 hPa North 9.7 km/h 17.7 km/h 95 % 0.0 mm
06:42 -4.2 °C -4.9 °C 1027.7 hPa NNE 4.8 km/h 17.7 km/h 95 % 0.0 mm
06:47 -4.2 °C -4.9 °C 1027.7 hPa NNE 8.0 km/h 17.7 km/h 95 % 0.0 mm
06:52 -4.2 °C -4.9 °C 1027.7 hPa North 8.0 km/h 12.9 km/h 95 % 0.0 mm
07:02 -4.2 °C -4.9 °C 1027.7 hPa NW 3.2 km/h 16.1 km/h 95 % 0.0 mm
07:12 -4.1 °C -4.8 °C 1027.7 hPa Calm   16.1 km/h 95 % 0.0 mm
07:17 -4.1 °C -4.8 °C 1027.7 hPa NNW 1.6 km/h 12.9 km/h 95 % 0.0 mm
07:22 -4.1 °C -4.8 °C 1027.7 hPa Calm   12.9 km/h 95 % 0.0 mm
07:27 -4.1 °C -4.8 °C 1027.7 hPa NNE 8.0 km/h 8.0 km/h 95 % 0.0 mm
07:32 -4.1 °C -4.8 °C 1028.0 hPa NNE 3.2 km/h 8.0 km/h 95 % 0.0 mm
07:37 -4.1 °C -4.8 °C 1027.7 hPa NE 3.2 km/h 16.1 km/h 95 % 0.0 mm
07:42 -4.1 °C -4.8 °C 1027.7 hPa Calm   16.1 km/h 95 % 0.0 mm
07:47 -4.1 °C -4.8 °C 1027.7 hPa NNE 3.2 km/h 16.1 km/h 95 % 0.0 mm
07:52 -4.1 °C -4.8 °C 1027.7 hPa North 9.7 km/h 16.1 km/h 95 % 0.0 mm
07:57 -4.2 °C -4.9 °C 1027.7 hPa NE 8.0 km/h 14.5 km/h 95 % 0.0 mm
08:02 -4.2 °C -4.9 °C 1027.7 hPa ENE 3.2 km/h 14.5 km/h 95 % 0.0 mm
08:07 -4.2 °C -4.9 °C 1028.0 hPa NNE 4.8 km/h 14.5 km/h 95 % 0.0 mm
08:12 -4.2 °C -4.9 °C 1028.0 hPa NNE 4.8 km/h 14.5 km/h 95 % 0.0 mm
08:17 -4.2 °C -4.9 °C 1028.0 hPa NNE 4.8 km/h 9.7 km/h 95 % 0.0 mm
08:22 -4.2 °C -4.9 °C 1028.0 hPa North 3.2 km/h 9.7 km/h 95 % 0.0 mm
08:27 -4.2 °C -4.9 °C 1028.0 hPa Calm   9.7 km/h 95 % 0.0 mm
08:32 -4.2 °C -4.9 °C 1028.0 hPa North 4.8 km/h 9.7 km/h 95 % 0.0 mm
08:37 -4.2 °C -4.9 °C 1028.0 hPa NW 4.8 km/h 6.4 km/h 95 % 0.0 mm
08:42 -4.2 °C -4.9 °C 1028.3 hPa North 1.6 km/h 6.4 km/h 95 % 0.0 mm
08:47 -4.2 °C -4.9 °C 1028.3 hPa NNW 1.6 km/h 4.8 km/h 95 % 0.0 mm
08:52 -4.1 °C -4.8 °C 1028.3 hPa NNW 1.6 km/h 4.8 km/h 95 % 0.0 mm
08:57 -4.1 °C -4.8 °C 1028.3 hPa NNE 4.8 km/h 6.4 km/h 95 % 0.0 mm
09:02 -4.1 °C -4.8 °C 1028.3 hPa North 1.6 km/h 6.4 km/h 95 % 0.0 mm
09:07 -4.1 °C -4.8 °C 1028.3 hPa Calm   6.4 km/h 95 % 0.0 mm
09:12 -4.1 °C -4.8 °C 1028.3 hPa NE 4.8 km/h 6.4 km/h 95 % 0.0 mm
09:17 -4.1 °C -4.8 °C 1028.3 hPa NNE 3.2 km/h 6.4 km/h 95 % 0.0 mm
09:22 -4.1 °C -4.8 °C 1028.3 hPa Calm   6.4 km/h 95 % 0.0 mm
09:27 -4.0 °C -4.7 °C 1028.3 hPa North 1.6 km/h 6.4 km/h 95 % 0.0 mm
09:32 -4.0 °C -4.7 °C 1028.3 hPa North 1.6 km/h 6.4 km/h 95 % 0.0 mm
09:37 -4.1 °C -4.8 °C 1028.3 hPa Calm   6.4 km/h 95 % 0.0 mm
09:42 -4.1 °C -4.8 °C 1028.3 hPa NW 3.2 km/h 6.4 km/h 95 % 0.0 mm
09:52 -4.2 °C -4.9 °C 1028.7 hPa Calm   4.8 km/h 95 % 0.0 mm
09:57 -4.2 °C -4.9 °C 1028.7 hPa NNW 1.6 km/h 4.8 km/h 95 % 0.0 mm
10:02 -4.1 °C -4.8 °C 1028.7 hPa NE 3.2 km/h 4.8 km/h 95 % 0.0 mm
10:07 -4.1 °C -4.8 °C 1028.7 hPa Calm   6.4 km/h 95 % 0.0 mm
10:12 -4.0 °C -4.7 °C 1028.7 hPa NNE 1.6 km/h 6.4 km/h 95 % 0.0 mm
10:17 -4.0 °C -4.7 °C 1028.7 hPa NNE 3.2 km/h 6.4 km/h 95 % 0.0 mm
10:22 -4.1 °C -4.8 °C 1028.7 hPa Calm   6.4 km/h 95 % 0.0 mm
10:27 -3.9 °C -4.6 °C 1028.7 hPa Calm   4.8 km/h 95 % 0.0 mm
10:32 -3.9 °C -4.6 °C 1028.7 hPa Calm   4.8 km/h 95 % 0.0 mm
10:37 -3.8 °C -4.5 °C 1028.7 hPa Calm   1.6 km/h 95 % 0.0 mm
10:42 -3.7 °C -4.4 °C 1028.7 hPa Calm   1.6 km/h 95 % 0.0 mm
10:47 -3.6 °C -4.3 °C 1028.7 hPa Calm     95 % 0.0 mm
10:52 -3.6 °C -4.3 °C 1028.7 hPa Calm     95 % 0.0 mm
10:57 -3.6 °C -4.3 °C 1028.7 hPa Calm   3.2 km/h 95 % 0.0 mm
11:02 -3.4 °C -4.1 °C 1028.7 hPa South 3.2 km/h 3.2 km/h 95 % 0.0 mm
11:07 -3.4 °C -4.1 °C 1028.7 hPa Calm   3.2 km/h 95 % 0.0 mm
11:17 -3.3 °C -4.0 °C 1028.7 hPa SW 1.6 km/h 3.2 km/h 95 % 0.0 mm
11:22 -3.3 °C -4.0 °C 1028.7 hPa SW 1.6 km/h 3.2 km/h 95 % 0.0 mm
11:27 -3.2 °C -3.9 °C 1028.7 hPa Calm   3.2 km/h 95 % 0.0 mm
11:32 -3.1 °C -3.6 °C 1028.7 hPa Calm   3.2 km/h 96 % 0.0 mm
11:37 -3.1 °C -3.8 °C 1028.7 hPa SW 1.6 km/h 3.2 km/h 95 % 0.0 mm
11:42 -3.0 °C -3.5 °C 1028.7 hPa Calm   3.2 km/h 96 % 0.0 mm
11:47 -2.8 °C -3.3 °C 1028.7 hPa Calm   3.2 km/h 96 % 0.0 mm
11:52 -2.7 °C -3.2 °C 1028.7 hPa Calm   3.2 km/h 96 % 0.0 mm
11:57 -2.6 °C -3.1 °C 1028.7 hPa Calm   3.2 km/h 96 % 0.0 mm
12:02 -2.6 °C -3.1 °C 1029.0 hPa Calm   1.6 km/h 96 % 0.0 mm
12:07 -2.6 °C -3.1 °C 1029.0 hPa Calm   1.6 km/h 96 % 0.0 mm
12:12 -2.6 °C -3.1 °C 1028.7 hPa Calm   1.6 km/h 96 % 0.0 mm
12:17 -2.6 °C -3.1 °C 1029.0 hPa Calm   1.6 km/h 96 % 0.0 mm
12:22 -2.5 °C -3.0 °C 1029.0 hPa Calm   1.6 km/h 96 % 0.0 mm
12:27 -2.4 °C -3.0 °C 1028.7 hPa Calm   1.6 km/h 96 % 0.0 mm
12:32 -2.3 °C -2.9 °C 1028.7 hPa Calm   1.6 km/h 96 % 0.0 mm
12:37 -2.2 °C -2.8 °C 1028.7 hPa Calm   1.6 km/h 96 % 0.0 mm
12:42 -2.1 °C -2.7 °C 1028.7 hPa Calm     96 % 0.0 mm
12:47 -2.0 °C -2.6 °C 1028.7 hPa Calm     96 % 0.0 mm
12:57 -1.8 °C -2.4 °C 1028.7 hPa Calm     96 % 0.0 mm
13:02 -1.8 °C -2.4 °C 1028.7 hPa Calm     96 % 0.0 mm
13:07 -1.8 °C -2.4 °C 1028.7 hPa Calm     96 % 0.0 mm
13:12 -1.7 °C -2.3 °C 1028.7 hPa Calm     96 % 0.0 mm
13:17 -1.7 °C -2.3 °C 1028.7 hPa Calm   3.2 km/h 96 % 0.0 mm
13:22 -1.6 °C -2.2 °C 1028.7 hPa NNE 3.2 km/h 3.2 km/h 96 % 0.0 mm
13:27 -1.6 °C -2.2 °C 1028.3 hPa Calm   4.8 km/h 96 % 0.0 mm
13:32 -1.6 °C -2.2 °C 1028.3 hPa Calm   4.8 km/h 96 % 0.0 mm
13:37 -1.5 °C -2.1 °C 1028.3 hPa Calm   4.8 km/h 96 % 0.0 mm
13:42 -1.4 °C -2.0 °C 1028.3 hPa NE 1.6 km/h 4.8 km/h 96 % 0.0 mm
13:47 -1.3 °C -1.9 °C 1028.3 hPa Calm   4.8 km/h 96 % 0.0 mm
13:52 -1.3 °C -1.9 °C 1028.3 hPa Calm   4.8 km/h 96 % 0.0 mm
13:57 -1.3 °C -1.9 °C 1028.3 hPa Calm   6.4 km/h 96 % 0.0 mm
14:02 -1.1 °C -1.5 °C 1028.0 hPa Calm   6.4 km/h 97 % 0.0 mm
14:07 -1.1 °C -1.5 °C 1028.0 hPa Calm   1.6 km/h 97 % 0.0 mm
14:12 -1.0 °C -1.6 °C 1028.0 hPa Calm   1.6 km/h 96 % 0.0 mm
14:17 -0.9 °C -1.3 °C 1028.0 hPa East 1.6 km/h 1.6 km/h 97 % 0.0 mm
14:22 -0.8 °C -1.2 °C 1027.7 hPa Calm   1.6 km/h 97 % 0.0 mm
14:27 -0.8 °C -1.2 °C 1027.7 hPa Calm   1.6 km/h 97 % 0.0 mm
14:32 -0.8 °C -1.4 °C 1028.0 hPa NNW 3.2 km/h 3.2 km/h 96 % 0.0 mm
14:37 -0.9 °C -1.5 °C 1028.0 hPa North 4.8 km/h 9.7 km/h 96 % 0.0 mm
14:42 -0.9 °C -1.5 °C 1028.0 hPa NE 4.8 km/h 9.7 km/h 96 % 0.0 mm
14:47 -1.1 °C -1.7 °C 1028.0 hPa NE 8.0 km/h 9.7 km/h 96 % 0.0 mm
14:52 -1.1 °C -1.7 °C 1028.0 hPa NE 4.8 km/h 9.7 km/h 96 % 0.0 mm
14:57 -1.2 °C -1.8 °C 1028.0 hPa NNE 3.2 km/h 11.3 km/h 96 % 0.0 mm
15:02 -1.2 °C -1.8 °C 1028.3 hPa NNW 6.4 km/h 11.3 km/h 96 % 0.0 mm
15:07 -1.3 °C -1.9 °C 1028.3 hPa NNE 8.0 km/h 14.5 km/h 96 % 0.0 mm
15:12 -1.4 °C -2.0 °C 1028.3 hPa NNE 6.4 km/h 14.5 km/h 96 % 0.0 mm
15:17 -1.4 °C -2.0 °C 1028.3 hPa NNE 8.0 km/h 16.1 km/h 96 % 0.0 mm
15:22 -1.4 °C -2.0 °C 1028.3 hPa North 11.3 km/h 16.1 km/h 96 % 0.0 mm
15:27 -1.4 °C -2.0 °C 1028.3 hPa NW 1.6 km/h 16.1 km/h 96 % 0.0 mm
15:32 -1.3 °C -1.9 °C 1028.3 hPa ENE 3.2 km/h 16.1 km/h 96 % 0.0 mm
15:37 -1.4 °C -2.0 °C 1028.3 hPa NE 4.8 km/h 12.9 km/h 96 % 0.0 mm
15:42 -1.4 °C -2.0 °C 1028.3 hPa NNE 8.0 km/h 12.9 km/h 96 % 0.0 mm
15:47 -1.6 °C -2.2 °C 1028.0 hPa NE 8.0 km/h 16.1 km/h 96 % 0.0 mm
15:52 -1.6 °C -2.2 °C 1028.3 hPa NE 8.0 km/h 16.1 km/h 96 % 0.0 mm
15:57 -1.6 °C -2.2 °C 1028.0 hPa NNE 3.2 km/h 16.1 km/h 96 % 0.0 mm
16:02 -1.6 °C -2.2 °C 1028.0 hPa NNE 4.8 km/h 17.7 km/h 96 % 0.0 mm
16:07 -1.6 °C -2.2 °C 1028.0 hPa NNE 6.4 km/h 17.7 km/h 96 % 0.0 mm
16:12 -1.6 °C -2.2 °C 1028.3 hPa NNE 8.0 km/h 17.7 km/h 96 % 0.0 mm
16:17 -1.7 °C -2.3 °C 1028.3 hPa North 6.4 km/h 14.5 km/h 96 % 0.0 mm
16:22 -1.7 °C -2.3 °C 1028.3 hPa ENE 8.0 km/h 16.1 km/h 96 % 0.0 mm
16:32 -1.7 °C -2.3 °C 1028.3 hPa NE 12.9 km/h 16.1 km/h 96 % 0.0 mm
16:37 -1.7 °C -2.3 °C 1028.3 hPa NE 4.8 km/h 12.9 km/h 96 % 0.0 mm
16:42 -1.8 °C -2.4 °C 1028.3 hPa NE 8.0 km/h 12.9 km/h 96 % 0.0 mm
16:52 -1.8 °C -2.4 °C 1028.3 hPa NW 1.6 km/h 14.5 km/h 96 % 0.0 mm
16:57 -1.8 °C -2.4 °C 1028.3 hPa Calm   14.5 km/h 96 % 0.0 mm
17:02 -1.8 °C -2.4 °C 1028.3 hPa Calm   12.9 km/h 96 % 0.0 mm
17:07 -1.8 °C -2.4 °C 1028.3 hPa NE 1.6 km/h 9.7 km/h 96 % 0.0 mm
17:12 -1.8 °C -2.4 °C 1028.3 hPa North 6.4 km/h 9.7 km/h 96 % 0.0 mm
17:17 -1.8 °C -2.4 °C 1028.3 hPa North 1.6 km/h 8.0 km/h 96 % 0.0 mm
17:22 -1.8 °C -2.4 °C 1028.3 hPa NNW 3.2 km/h 11.3 km/h 96 % 0.0 mm
17:27 -1.8 °C -2.4 °C 1028.3 hPa NNW 3.2 km/h 11.3 km/h 96 % 0.0 mm
17:32 -1.8 °C -2.4 °C 1028.3 hPa NNE 4.8 km/h 16.1 km/h 96 % 0.0 mm
17:37 -1.8 °C -2.4 °C 1028.3 hPa NNW 6.4 km/h 16.1 km/h 96 % 0.0 mm
17:42 -1.8 °C -2.4 °C 1028.3 hPa North 4.8 km/h 16.1 km/h 96 % 0.0 mm
17:47 -1.8 °C -2.4 °C 1028.7 hPa North 8.0 km/h 14.5 km/h 96 % 0.0 mm
17:57 -1.8 °C -2.4 °C 1028.7 hPa NW 1.6 km/h 14.5 km/h 96 % 0.0 mm
18:02 -1.8 °C -2.4 °C 1028.7 hPa North 8.0 km/h 14.5 km/h 96 % 0.0 mm
18:12 -1.8 °C -2.4 °C 1028.7 hPa NNW 1.6 km/h 14.5 km/h 96 % 0.0 mm
18:17 -1.8 °C -2.4 °C 1028.7 hPa NW 3.2 km/h 12.9 km/h 96 % 0.0 mm
18:22 -1.8 °C -2.4 °C 1028.3 hPa NNW 6.4 km/h 14.5 km/h 96 % 0.0 mm
18:27 -1.7 °C -2.3 °C 1028.3 hPa NNW 1.6 km/h 14.5 km/h 96 % 0.0 mm
18:32 -1.7 °C -2.3 °C 1028.3 hPa NNE 1.6 km/h 14.5 km/h 96 % 0.0 mm
18:37 -1.7 °C -2.3 °C 1028.3 hPa NNW 3.2 km/h 14.5 km/h 96 % 0.0 mm
18:42 -1.7 °C -2.3 °C 1028.3 hPa North 11.3 km/h 11.3 km/h 96 % 0.0 mm
18:47 -1.7 °C -2.3 °C 1028.3 hPa NE 3.2 km/h 9.7 km/h 96 % 0.0 mm
18:57 -1.7 °C -2.3 °C 1028.3 hPa ENE 8.0 km/h 14.5 km/h 96 % 0.0 mm
19:02 -1.7 °C -2.3 °C 1028.3 hPa NNE 9.7 km/h 16.1 km/h 96 % 0.0 mm
19:07 -1.7 °C -2.3 °C 1028.3 hPa NNE 20.9 km/h 24.1 km/h 96 % 0.0 mm
19:17 -1.7 °C -2.3 °C 1028.7 hPa WNW 6.4 km/h 24.1 km/h 96 % 0.0 mm
19:22 -1.7 °C -2.3 °C 1028.7 hPa NNE 12.9 km/h 20.9 km/h 96 % 0.0 mm
19:27 -1.6 °C -2.2 °C 1028.7 hPa NNW 6.4 km/h 20.9 km/h 96 % 0.0 mm
19:32 -1.6 °C -2.2 °C 1028.7 hPa NNW 9.7 km/h 19.3 km/h 96 % 0.0 mm
19:37 -1.6 °C -2.2 °C 1028.7 hPa Calm   14.5 km/h 96 % 0.0 mm
19:42 -1.6 °C -2.2 °C 1028.3 hPa NNE 1.6 km/h 12.9 km/h 96 % 0.0 mm
19:52 -1.6 °C -2.2 °C 1028.7 hPa NNW 6.4 km/h 14.5 km/h 96 % 0.0 mm
19:57 -1.6 °C -2.2 °C 1028.7 hPa NNE 8.0 km/h 14.5 km/h 96 % 0.0 mm
20:02 -1.6 °C -2.2 °C 1028.7 hPa NNW 6.4 km/h 12.9 km/h 96 % 0.0 mm
20:07 -1.6 °C -2.2 °C 1028.7 hPa NNW 8.0 km/h 12.9 km/h 96 % 0.0 mm
20:12 -1.6 °C -2.2 °C 1028.7 hPa North 9.7 km/h 16.1 km/h 96 % 0.0 mm
20:17 -1.6 °C -2.3 °C 1028.7 hPa North 6.4 km/h 16.1 km/h 95 % 0.0 mm
20:22 -1.6 °C -2.3 °C 1028.7 hPa NE 6.4 km/h 17.7 km/h 95 % 0.0 mm
20:27 -1.6 °C -2.3 °C 1028.7 hPa ENE 8.0 km/h 17.7 km/h 95 % 0.0 mm
20:32 -1.5 °C -2.2 °C 1028.7 hPa North 8.0 km/h 17.7 km/h 95 % 0.0 mm
20:37 -1.5 °C -2.2 °C 1028.7 hPa North 8.0 km/h 19.3 km/h 95 % 0.0 mm
20:42 -1.5 °C -2.2 °C 1028.7 hPa NE 6.4 km/h 19.3 km/h 95 % 0.0 mm
20:47 -1.5 °C -2.2 °C 1028.7 hPa NW 9.7 km/h 17.7 km/h 95 % 0.0 mm
20:52 -1.5 °C -2.2 °C 1028.3 hPa Calm   14.5 km/h 95 % 0.0 mm
20:57 -1.5 °C -2.2 °C 1028.3 hPa Calm   14.5 km/h 95 % 0.0 mm
21:02 -1.5 °C -2.2 °C 1028.3 hPa NNW 6.4 km/h 14.5 km/h 95 % 0.0 mm
21:07 -1.5 °C -2.2 °C 1028.3 hPa NNW 3.2 km/h 8.0 km/h 95 % 0.0 mm
21:12 -1.4 °C -2.1 °C 1028.3 hPa NNE 1.6 km/h 9.7 km/h 95 % 0.0 mm
21:22 -1.4 °C -2.1 °C 1028.3 hPa Calm   8.0 km/h 95 % 0.0 mm
21:27 -1.4 °C -2.1 °C 1028.3 hPa Calm   8.0 km/h 95 % 0.0 mm
21:32 -1.4 °C -2.1 °C 1028.3 hPa NE 4.8 km/h 8.0 km/h 95 % 0.0 mm
21:37 -1.4 °C -2.1 °C 1028.3 hPa North 4.8 km/h 8.0 km/h 95 % 0.0 mm
21:42 -1.3 °C -2.0 °C 1028.3 hPa NE 6.4 km/h 8.0 km/h 95 % 0.0 mm
21:47 -1.3 °C -2.1 °C 1028.3 hPa NNE 6.4 km/h 9.7 km/h 94 % 0.0 mm
21:52 -1.2 °C -2.0 °C 1028.3 hPa NE 4.8 km/h 16.1 km/h 94 % 0.0 mm
21:57 -1.2 °C -2.0 °C 1028.3 hPa North 4.8 km/h 17.7 km/h 94 % 0.0 mm
22:02 -1.2 °C -2.0 °C 1028.3 hPa NNE 3.2 km/h 17.7 km/h 94 % 0.0 mm
22:07 -1.1 °C -1.9 °C 1028.3 hPa North 6.4 km/h 17.7 km/h 94 % 0.0 mm
22:12 -1.1 °C -1.9 °C 1028.3 hPa NNE 9.7 km/h 17.7 km/h 94 % 0.0 mm
22:17 -1.1 °C -2.1 °C 1028.3 hPa NNE 8.0 km/h 14.5 km/h 93 % 0.0 mm
22:27 -1.1 °C -2.1 °C 1028.3 hPa NE 11.3 km/h 16.1 km/h 93 % 0.0 mm
22:32 -1.1 °C -2.1 °C 1028.3 hPa NW 11.3 km/h 16.1 km/h 93 % 0.0 mm
22:37 -1.1 °C -2.2 °C 1028.3 hPa NNE 9.7 km/h 17.7 km/h 92 % 0.0 mm
22:42 -1.1 °C -2.2 °C 1028.0 hPa NNE 11.3 km/h 20.9 km/h 92 % 0.0 mm
22:47 -1.1 °C -2.2 °C 1028.0 hPa NNE 12.9 km/h 20.9 km/h 92 % 0.0 mm
22:52 -1.1 °C -2.4 °C 1028.0 hPa NE 17.7 km/h 22.5 km/h 91 % 0.0 mm
22:57 -1.1 °C -2.4 °C 1028.0 hPa NE 17.7 km/h 24.1 km/h 91 % 0.0 mm
23:02 -1.1 °C -2.4 °C 1028.0 hPa NE 16.1 km/h 24.1 km/h 91 % 0.0 mm
23:07 -1.1 °C -2.4 °C 1028.0 hPa NE 24.1 km/h 24.1 km/h 91 % 0.0 mm
23:12 -1.2 °C -2.3 °C 1028.0 hPa NNE 25.7 km/h 25.7 km/h 92 % 0.0 mm
23:17 -1.2 °C -2.5 °C 1028.0 hPa NNE 14.5 km/h 24.1 km/h 91 % 0.0 mm
23:22 -1.2 °C -2.5 °C 1028.0 hPa NNE 19.3 km/h 27.4 km/h 91 % 0.0 mm
23:27 -1.3 °C -2.6 °C 1028.0 hPa NE 9.7 km/h 27.4 km/h 91 % 0.0 mm
23:32 -1.3 °C -2.6 °C 1028.0 hPa NE 9.7 km/h 25.7 km/h 91 % 0.0 mm
23:37 -1.3 °C -2.6 °C 1028.0 hPa NE 9.7 km/h 19.3 km/h 91 % 0.0 mm
23:42 -1.3 °C -2.6 °C 1028.0 hPa NE 14.5 km/h 22.5 km/h 91 % 0.0 mm
23:47 -1.3 °C -2.6 °C 1028.0 hPa NE 14.5 km/h 22.5 km/h 91 % 0.0 mm
23:52 -1.4 °C -2.8 °C 1028.0 hPa NE 11.3 km/h 22.5 km/h 90 % 0.0 mm
23:57 -1.4 °C -2.8 °C 1028.0 hPa NE 8.0 km/h 24.1 km/h 90 % 0.0 mm
Meteo18
Compliments of Weather Underground - 4 mb

Script developed by  Jim McMurry - jmcmurry@mwt.net Adapted for the template by  Wim van der Kuil - Leuven-Template.eu

You find our weather info also at:

European Weather Network

Weather Underground

Equipment we use:

Weather-station
Davis Vue

Weather-program
Meteohub

Weather-server
Raspberry PI 2 B+

Provider
1 and 1

Davis Vue

Meteohub

Raspberry PI 2 B+

1 and 1